sensor_id;sensor_type;location;lat;lon;timestamp;pressure;altitude;pressure_sealevel;temperature;humidity
76126;BME280;65174;48.138;21.002;2023-06-14T00:02:22;99131.31;;;13.22;78.05
76126;BME280;65174;48.138;21.002;2023-06-14T00:05:24;99129.03;;;13.08;78.65
76126;BME280;65174;48.138;21.002;2023-06-14T00:08:26;99132.09;;;12.69;79.82
76126;BME280;65174;48.138;21.002;2023-06-14T00:11:28;99124.22;;;12.59;80.59
76126;BME280;65174;48.138;21.002;2023-06-14T00:14:32;99123.03;;;12.63;80.03
76126;BME280;65174;48.138;21.002;2023-06-14T00:17:34;99114.22;;;12.77;79.86
76126;BME280;65174;48.138;21.002;2023-06-14T00:20:37;99117.16;;;12.61;80.30
76126;BME280;65174;48.138;21.002;2023-06-14T00:23:41;99109.16;;;12.64;80.58
76126;BME280;65174;48.138;21.002;2023-06-14T00:26:43;99118.69;;;12.64;80.23
76126;BME280;65174;48.138;21.002;2023-06-14T00:29:44;99110.88;;;12.86;79.36
76126;BME280;65174;48.138;21.002;2023-06-14T00:32:47;99105.94;;;13.05;78.35
76126;BME280;65174;48.138;21.002;2023-06-14T00:35:49;99112.53;;;12.87;78.53
76126;BME280;65174;48.138;21.002;2023-06-14T00:38:54;99107.22;;;13.00;78.20
76126;BME280;65174;48.138;21.002;2023-06-14T00:41:56;99106.19;;;12.91;78.62
76126;BME280;65174;48.138;21.002;2023-06-14T00:45:00;99107.44;;;13.19;77.37
76126;BME280;65174;48.138;21.002;2023-06-14T00:48:03;99102.84;;;13.11;77.67
76126;BME280;65174;48.138;21.002;2023-06-14T00:51:08;99108.41;;;12.96;78.30
76126;BME280;65174;48.138;21.002;2023-06-14T00:54:10;99107.59;;;12.84;78.22
76126;BME280;65174;48.138;21.002;2023-06-14T00:57:13;99103.63;;;12.69;79.09
76126;BME280;65174;48.138;21.002;2023-06-14T01:00:15;99113.63;;;12.40;79.99
76126;BME280;65174;48.138;21.002;2023-06-14T01:03:17;99111.16;;;12.39;80.36
76126;BME280;65174;48.138;21.002;2023-06-14T01:10:47;99102.47;;;12.51;79.60
76126;BME280;65174;48.138;21.002;2023-06-14T01:16:23;99103.63;;;12.47;79.50
76126;BME280;65174;48.138;21.002;2023-06-14T01:19:27;99112.09;;;12.49;79.20
76126;BME280;65174;48.138;21.002;2023-06-14T01:22:30;99102.69;;;12.59;78.75
76126;BME280;65174;48.138;21.002;2023-06-14T01:25:32;99106.44;;;12.55;78.75
76126;BME280;65174;48.138;21.002;2023-06-14T01:28:35;99095.16;;;12.45;78.81
76126;BME280;65174;48.138;21.002;2023-06-14T01:31:37;99099.78;;;12.52;78.64
76126;BME280;65174;48.138;21.002;2023-06-14T01:34:43;99106.00;;;12.50;78.76
76126;BME280;65174;48.138;21.002;2023-06-14T01:37:47;99098.69;;;12.55;78.35
76126;BME280;65174;48.138;21.002;2023-06-14T01:40:50;99099.63;;;12.43;79.08
76126;BME280;65174;48.138;21.002;2023-06-14T01:43:54;99107.28;;;12.55;77.67
76126;BME280;65174;48.138;21.002;2023-06-14T01:46:57;99106.00;;;12.50;77.76
76126;BME280;65174;48.138;21.002;2023-06-14T01:49:59;99109.50;;;12.49;77.92
76126;BME280;65174;48.138;21.002;2023-06-14T01:53:01;99108.47;;;12.51;77.56
76126;BME280;65174;48.138;21.002;2023-06-14T01:56:03;99108.69;;;12.59;77.11
76126;BME280;65174;48.138;21.002;2023-06-14T01:59:05;99111.88;;;12.63;77.16
76126;BME280;65174;48.138;21.002;2023-06-14T02:02:07;99117.16;;;12.61;77.23
76126;BME280;65174;48.138;21.002;2023-06-14T02:05:09;99109.88;;;12.55;77.65
76126;BME280;65174;48.138;21.002;2023-06-14T02:08:15;99124.00;;;12.62;77.08
76126;BME280;65174;48.138;21.002;2023-06-14T02:11:17;99128.47;;;12.60;77.19
76126;BME280;65174;48.138;21.002;2023-06-14T02:14:20;99120.34;;;12.65;76.91
76126;BME280;65174;48.138;21.002;2023-06-14T02:17:22;99115.28;;;12.63;76.81
76126;BME280;65174;48.138;21.002;2023-06-14T02:20:24;99127.16;;;12.66;76.60
76126;BME280;65174;48.138;21.002;2023-06-14T02:23:26;99125.63;;;12.63;76.55
76126;BME280;65174;48.138;21.002;2023-06-14T02:26:28;99132.31;;;12.55;76.94
76126;BME280;65174;48.138;21.002;2023-06-14T02:29:30;99130.09;;;12.39;77.29
76126;BME280;65174;48.138;21.002;2023-06-14T02:32:32;99121.03;;;12.34;77.72
76126;BME280;65174;48.138;21.002;2023-06-14T02:35:37;99135.97;;;12.41;77.52
76126;BME280;65174;48.138;21.002;2023-06-14T02:38:39;99138.31;;;12.44;77.36
76126;BME280;65174;48.138;21.002;2023-06-14T02:41:43;99136.91;;;12.40;77.34
76126;BME280;65174;48.138;21.002;2023-06-14T02:44:45;99140.81;;;12.46;77.10
76126;BME280;65174;48.138;21.002;2023-06-14T02:47:52;99134.00;;;12.56;76.68
76126;BME280;65174;48.138;21.002;2023-06-14T02:50:54;99140.91;;;12.55;76.64
76126;BME280;65174;48.138;21.002;2023-06-14T02:53:57;99138.69;;;12.62;76.34
76126;BME280;65174;48.138;21.002;2023-06-14T02:57:00;99137.75;;;12.63;76.23
76126;BME280;65174;48.138;21.002;2023-06-14T03:00:02;99132.09;;;12.69;76.12
76126;BME280;65174;48.138;21.002;2023-06-14T03:03:07;99138.22;;;12.79;75.69
76126;BME280;65174;48.138;21.002;2023-06-14T03:06:19;99138.91;;;12.81;75.63
76126;BME280;65174;48.138;21.002;2023-06-14T03:09:25;99142.78;;;12.87;75.32
76126;BME280;65174;48.138;21.002;2023-06-14T03:12:27;99134.53;;;12.93;75.42
76126;BME280;65174;48.138;21.002;2023-06-14T03:15:29;99137.38;;;12.90;76.34
76126;BME280;65174;48.138;21.002;2023-06-14T03:18:33;99136.31;;;12.92;76.16
76126;BME280;65174;48.138;21.002;2023-06-14T03:21:39;99132.31;;;13.10;74.95
76126;BME280;65174;48.138;21.002;2023-06-14T03:24:45;99136.38;;;13.24;74.32
76126;BME280;65174;48.138;21.002;2023-06-14T03:27:49;99134.47;;;13.37;74.23
76126;BME280;65174;48.138;21.002;2023-06-14T03:30:52;99141.31;;;13.38;74.21
76126;BME280;65174;48.138;21.002;2023-06-14T03:33:56;99136.88;;;13.49;73.88
76126;BME280;65174;48.138;21.002;2023-06-14T03:36:58;99139.78;;;13.67;73.73
76126;BME280;65174;48.138;21.002;2023-06-14T03:40:00;99142.75;;;13.83;74.29
76126;BME280;65174;48.138;21.002;2023-06-14T03:43:05;99149.41;;;13.97;73.70
76126;BME280;65174;48.138;21.002;2023-06-14T03:46:07;99149.19;;;14.51;72.25
76126;BME280;65174;48.138;21.002;2023-06-14T03:49:09;99144.75;;;15.21;68.94
76126;BME280;65174;48.138;21.002;2023-06-14T03:52:12;99151.41;;;15.63;66.90
76126;BME280;65174;48.138;21.002;2023-06-14T03:55:17;99154.28;;;15.89;64.78
76126;BME280;65174;48.138;21.002;2023-06-14T03:58:22;99152.56;;;16.26;63.36
76126;BME280;65174;48.138;21.002;2023-06-14T04:01:25;99156.72;;;16.65;62.52
76126;BME280;65174;48.138;21.002;2023-06-14T04:04:33;99156.53;;;16.77;61.69
76126;BME280;65174;48.138;21.002;2023-06-14T04:07:37;99156.31;;;16.97;60.52
76126;BME280;65174;48.138;21.002;2023-06-14T04:14:55;99152.06;;;17.23;58.87
76126;BME280;65174;48.138;21.002;2023-06-14T04:18:05;99154.56;;;17.60;58.27
76126;BME280;65174;48.138;21.002;2023-06-14T04:21:07;99144.81;;;17.35;59.28
76126;BME280;65174;48.138;21.002;2023-06-14T04:24:10;99151.47;;;17.47;59.42
76126;BME280;65174;48.138;21.002;2023-06-14T04:27:18;99155.56;;;17.32;61.16
76126;BME280;65174;48.138;21.002;2023-06-14T04:30:23;99161.13;;;17.64;60.27
76126;BME280;65174;48.138;21.002;2023-06-14T04:33:28;99152.19;;;17.67;60.66
76126;BME280;65174;48.138;21.002;2023-06-14T04:36:34;99158.47;;;17.02;62.18
76126;BME280;65174;48.138;21.002;2023-06-14T04:39:39;99165.72;;;17.08;61.03
76126;BME280;65174;48.138;21.002;2023-06-14T04:42:41;99155.94;;;17.19;61.29
76126;BME280;65174;48.138;21.002;2023-06-14T04:45:48;99159.22;;;16.94;61.95
76126;BME280;65174;48.138;21.002;2023-06-14T04:48:51;99157.28;;;16.96;61.81
76126;BME280;65174;48.138;21.002;2023-06-14T04:51:53;99158.75;;;16.99;61.84
76126;BME280;65174;48.138;21.002;2023-06-14T04:55:13;99161.53;;;16.97;61.91
76126;BME280;65174;48.138;21.002;2023-06-14T04:58:16;99162.53;;;17.14;61.30
76126;BME280;65174;48.138;21.002;2023-06-14T05:01:18;99160.31;;;16.92;63.04
76126;BME280;65174;48.138;21.002;2023-06-14T05:04:21;99168.16;;;16.82;61.93
76126;BME280;65174;48.138;21.002;2023-06-14T05:07:24;99168.63;;;17.05;63.68
76126;BME280;65174;48.138;21.002;2023-06-14T05:10:27;99176.66;;;17.11;64.82
76126;BME280;65174;48.138;21.002;2023-06-14T05:13:29;99165.53;;;17.19;65.02
76126;BME280;65174;48.138;21.002;2023-06-14T05:16:51;99173.69;;;17.06;63.46
76126;BME280;65174;48.138;21.002;2023-06-14T05:19:54;99173.84;;;17.05;64.83
76126;BME280;65174;48.138;21.002;2023-06-14T05:22:57;99176.63;;;16.94;63.11
76126;BME280;65174;48.138;21.002;2023-06-14T05:26:00;99177.78;;;17.09;62.48
76126;BME280;65174;48.138;21.002;2023-06-14T05:29:04;99175.53;;;17.23;61.64
76126;BME280;65174;48.138;21.002;2023-06-14T05:32:06;99180.56;;;16.15;66.24
76126;BME280;65174;48.138;21.002;2023-06-14T05:35:08;99181.91;;;16.75;64.12
76126;BME280;65174;48.138;21.002;2023-06-14T05:38:10;99172.34;;;17.02;63.67
76126;BME280;65174;48.138;21.002;2023-06-14T05:41:12;99184.88;;;17.79;60.99
76126;BME280;65174;48.138;21.002;2023-06-14T05:44:14;99173.94;;;17.58;61.66
76126;BME280;65174;48.138;21.002;2023-06-14T05:47:17;99181.53;;;17.51;62.65
76126;BME280;65174;48.138;21.002;2023-06-14T05:50:19;99189.50;;;17.85;61.10
76126;BME280;65174;48.138;21.002;2023-06-14T05:53:21;99181.56;;;17.86;61.72
76126;BME280;65174;48.138;21.002;2023-06-14T05:56:23;99188.31;;;17.34;62.54
76126;BME280;65174;48.138;21.002;2023-06-14T05:59:25;99191.66;;;17.54;63.24
76126;BME280;65174;48.138;21.002;2023-06-14T06:02:27;99181.69;;;17.67;62.09
76126;BME280;65174;48.138;21.002;2023-06-14T06:05:29;99191.22;;;17.76;61.69
76126;BME280;65174;48.138;21.002;2023-06-14T06:08:33;99189.44;;;17.59;63.13
76126;BME280;65174;48.138;21.002;2023-06-14T06:11:35;99194.00;;;17.03;64.18
76126;BME280;65174;48.138;21.002;2023-06-14T06:14:53;99193.44;;;17.89;63.00
76126;BME280;65174;48.138;21.002;2023-06-14T06:17:55;99196.25;;;17.70;62.46
76126;BME280;65174;48.138;21.002;2023-06-14T06:20:57;99195.53;;;17.50;64.75
76126;BME280;65174;48.138;21.002;2023-06-14T06:24:02;99201.41;;;18.22;60.98
76126;BME280;65174;48.138;21.002;2023-06-14T06:27:07;99200.50;;;17.43;63.36
76126;BME280;65174;48.138;21.002;2023-06-14T06:30:10;99203.69;;;17.82;62.81
76126;BME280;65174;48.138;21.002;2023-06-14T06:33:12;99209.31;;;18.31;62.13
76126;BME280;65174;48.138;21.002;2023-06-14T06:36:15;99207.31;;;17.54;62.88
76126;BME280;65174;48.138;21.002;2023-06-14T06:39:17;99213.78;;;17.23;63.67
76126;BME280;65174;48.138;21.002;2023-06-14T06:42:19;99214.63;;;18.21;61.30
76126;BME280;65174;48.138;21.002;2023-06-14T06:45:24;99219.34;;;18.94;60.16
76126;BME280;65174;48.138;21.002;2023-06-14T06:48:26;99216.81;;;18.77;59.67
76126;BME280;65174;48.138;21.002;2023-06-14T06:51:28;99222.44;;;18.21;62.02
76126;BME280;65174;48.138;21.002;2023-06-14T06:54:30;99205.50;;;18.68;59.75
76126;BME280;65174;48.138;21.002;2023-06-14T06:57:32;99224.31;;;19.06;58.32
76126;BME280;65174;48.138;21.002;2023-06-14T07:00:34;99214.56;;;18.13;61.79
76126;BME280;65174;48.138;21.002;2023-06-14T07:03:36;99218.88;;;18.65;60.61
76126;BME280;65174;48.138;21.002;2023-06-14T07:06:39;99225.53;;;18.42;60.44
76126;BME280;65174;48.138;21.002;2023-06-14T07:09:41;99222.41;;;18.82;58.41
76126;BME280;65174;48.138;21.002;2023-06-14T07:12:45;99227.81;;;19.22;58.02
76126;BME280;65174;48.138;21.002;2023-06-14T07:19:27;99230.88;;;19.51;57.12
76126;BME280;65174;48.138;21.002;2023-06-14T07:22:29;99234.22;;;18.94;58.99
76126;BME280;65174;48.138;21.002;2023-06-14T07:25:31;99224.25;;;18.03;60.24
76126;BME280;65174;48.138;21.002;2023-06-14T07:28:33;99228.91;;;19.12;57.67
76126;BME280;65174;48.138;21.002;2023-06-14T07:31:35;99227.41;;;19.43;58.31
76126;BME280;65174;48.138;21.002;2023-06-14T07:34:37;99227.31;;;18.42;60.24
76126;BME280;65174;48.138;21.002;2023-06-14T07:37:39;99226.28;;;19.37;58.23
76126;BME280;65174;48.138;21.002;2023-06-14T07:40:41;99232.38;;;19.20;59.12
76126;BME280;65174;48.138;21.002;2023-06-14T07:43:43;99229.31;;;19.83;56.21
76126;BME280;65174;48.138;21.002;2023-06-14T07:46:45;99231.25;;;19.64;55.98
76126;BME280;65174;48.138;21.002;2023-06-14T07:49:51;99228.66;;;19.89;56.39
76126;BME280;65174;48.138;21.002;2023-06-14T07:52:53;99234.97;;;19.54;55.91
76126;BME280;65174;48.138;21.002;2023-06-14T07:55:54;99232.13;;;20.53;53.65
76126;BME280;65174;48.138;21.002;2023-06-14T07:58:56;99236.13;;;20.96;53.26
76126;BME280;65174;48.138;21.002;2023-06-14T08:01:59;99239.00;;;20.14;53.22
76126;BME280;65174;48.138;21.002;2023-06-14T08:05:05;99236.56;;;20.45;52.60
76126;BME280;65174;48.138;21.002;2023-06-14T08:08:07;99246.06;;;20.30;53.03
76126;BME280;65174;48.138;21.002;2023-06-14T08:11:09;99236.78;;;19.53;54.41
76126;BME280;65174;48.138;21.002;2023-06-14T08:14:11;99229.84;;;19.36;54.33
76126;BME280;65174;48.138;21.002;2023-06-14T08:17:13;99235.28;;;19.43;54.96
76126;BME280;65174;48.138;21.002;2023-06-14T08:20:15;99239.13;;;20.77;51.12
76126;BME280;65174;48.138;21.002;2023-06-14T08:23:18;99233.41;;;21.28;50.22
76126;BME280;65174;48.138;21.002;2023-06-14T08:26:22;99238.47;;;21.38;51.56
76126;BME280;65174;48.138;21.002;2023-06-14T08:29:24;99235.69;;;20.77;51.71
76126;BME280;65174;48.138;21.002;2023-06-14T08:32:26;99245.72;;;20.65;53.86
76126;BME280;65174;48.138;21.002;2023-06-14T08:35:29;99249.66;;;20.21;53.45
76126;BME280;65174;48.138;21.002;2023-06-14T08:38:31;99247.38;;;20.26;53.83
76126;BME280;65174;48.138;21.002;2023-06-14T08:41:33;99247.28;;;19.69;55.13
76126;BME280;65174;48.138;21.002;2023-06-14T08:44:36;99253.53;;;19.93;54.70
76126;BME280;65174;48.138;21.002;2023-06-14T08:47:38;99257.63;;;19.79;53.58
76126;BME280;65174;48.138;21.002;2023-06-14T08:50:43;99250.97;;;20.41;51.41
76126;BME280;65174;48.138;21.002;2023-06-14T08:53:52;99255.69;;;20.62;53.11
76126;BME280;65174;48.138;21.002;2023-06-14T08:56:54;99253.81;;;21.10;51.10
76126;BME280;65174;48.138;21.002;2023-06-14T08:59:59;99255.41;;;21.27;48.86
76126;BME280;65174;48.138;21.002;2023-06-14T09:03:03;99258.66;;;21.29;49.52
76126;BME280;65174;48.138;21.002;2023-06-14T09:06:05;99251.06;;;21.34;48.92
76126;BME280;65174;48.138;21.002;2023-06-14T09:09:07;99256.22;;;21.89;47.48
76126;BME280;65174;48.138;21.002;2023-06-14T09:12:12;99250.75;;;22.22;47.09
76126;BME280;65174;48.138;21.002;2023-06-14T09:15:14;99253.63;;;22.49;44.79
76126;BME280;65174;48.138;21.002;2023-06-14T09:27:01;99259.88;;;22.85;45.90
76126;BME280;65174;48.138;21.002;2023-06-14T09:30:03;99262.59;;;22.77;46.22
76126;BME280;65174;48.138;21.002;2023-06-14T09:33:07;99254.97;;;22.68;46.37
76126;BME280;65174;48.138;21.002;2023-06-14T09:36:12;99258.50;;;21.62;50.11
76126;BME280;65174;48.138;21.002;2023-06-14T09:39:17;99259.16;;;22.17;48.49
76126;BME280;65174;48.138;21.002;2023-06-14T09:42:21;99254.19;;;21.38;49.66
76126;BME280;65174;48.138;21.002;2023-06-14T09:45:23;99258.09;;;20.95;49.64
76126;BME280;65174;48.138;21.002;2023-06-14T09:48:25;99256.00;;;21.38;48.09
76126;BME280;65174;48.138;21.002;2023-06-14T09:51:28;99261.16;;;22.15;46.02
76126;BME280;65174;48.138;21.002;2023-06-14T09:54:36;99254.63;;;21.88;47.87
76126;BME280;65174;48.138;21.002;2023-06-14T09:57:45;99254.81;;;22.01;47.93
76126;BME280;65174;48.138;21.002;2023-06-14T10:00:49;99259.81;;;22.56;48.07
76126;BME280;65174;48.138;21.002;2023-06-14T10:04:10;99255.09;;;23.04;47.59
76126;BME280;65174;48.138;21.002;2023-06-14T10:07:19;99266.69;;;23.24;47.28
76126;BME280;65174;48.138;21.002;2023-06-14T10:10:21;99263.97;;;23.46;45.95
76126;BME280;65174;48.138;21.002;2023-06-14T10:13:23;99255.97;;;22.96;45.07
76126;BME280;65174;48.138;21.002;2023-06-14T10:16:33;99251.34;;;23.13;44.83
76126;BME280;65174;48.138;21.002;2023-06-14T10:19:44;99248.13;;;23.61;43.52
76126;BME280;65174;48.138;21.002;2023-06-14T10:23:15;99243.78;;;22.06;47.89
76126;BME280;65174;48.138;21.002;2023-06-14T10:26:20;99248.72;;;22.98;45.26
76126;BME280;65174;48.138;21.002;2023-06-14T10:29:27;99243.00;;;22.65;46.39
76126;BME280;65174;48.138;21.002;2023-06-14T10:32:34;99241.28;;;23.45;45.43
76126;BME280;65174;48.138;21.002;2023-06-14T10:39:44;99233.91;;;23.26;44.19
76126;BME280;65174;48.138;21.002;2023-06-14T10:43:23;99242.81;;;22.81;46.86
76126;BME280;65174;48.138;21.002;2023-06-14T10:46:46;99238.59;;;22.43;45.25
76126;BME280;65174;48.138;21.002;2023-06-14T10:49:51;99237.09;;;22.26;47.05
76126;BME280;65174;48.138;21.002;2023-06-14T10:52:54;99240.50;;;21.81;47.39
76126;BME280;65174;48.138;21.002;2023-06-14T10:55:56;99230.19;;;22.02;48.09
76126;BME280;65174;48.138;21.002;2023-06-14T10:58:58;99218.75;;;21.95;46.93
76126;BME280;65174;48.138;21.002;2023-06-14T11:05:53;99227.97;;;21.91;48.51
76126;BME280;65174;48.138;21.002;2023-06-14T11:09:20;99231.44;;;21.92;49.28
76126;BME280;65174;48.138;21.002;2023-06-14T11:12:27;99231.50;;;22.06;49.32
76126;BME280;65174;48.138;21.002;2023-06-14T11:15:30;99229.09;;;21.97;47.83
76126;BME280;65174;48.138;21.002;2023-06-14T11:18:32;99225.53;;;21.90;47.36
76126;BME280;65174;48.138;21.002;2023-06-14T11:21:40;99219.34;;;21.83;49.28
76126;BME280;65174;48.138;21.002;2023-06-14T11:24:42;99214.31;;;21.96;46.37
76126;BME280;65174;48.138;21.002;2023-06-14T11:27:45;99217.13;;;21.94;45.69
76126;BME280;65174;48.138;21.002;2023-06-14T11:31:00;99218.97;;;22.46;45.17
76126;BME280;65174;48.138;21.002;2023-06-14T11:34:02;99217.56;;;22.58;44.84
76126;BME280;65174;48.138;21.002;2023-06-14T11:37:05;99218.88;;;22.91;44.80
76126;BME280;65174;48.138;21.002;2023-06-14T11:40:08;99228.75;;;23.47;44.70
76126;BME280;65174;48.138;21.002;2023-06-14T11:43:11;99223.59;;;23.25;44.95
76126;BME280;65174;48.138;21.002;2023-06-14T11:46:15;99216.69;;;23.24;43.40
76126;BME280;65174;48.138;21.002;2023-06-14T11:49:17;99200.31;;;23.79;42.19
76126;BME280;65174;48.138;21.002;2023-06-14T11:52:19;99201.53;;;23.61;40.41
76126;BME280;65174;48.138;21.002;2023-06-14T11:55:22;99196.53;;;23.31;42.14
76126;BME280;65174;48.138;21.002;2023-06-14T11:58:25;99194.00;;;23.37;43.59
76126;BME280;65174;48.138;21.002;2023-06-14T12:01:29;99191.22;;;23.81;42.45
76126;BME280;65174;48.138;21.002;2023-06-14T12:04:32;99195.22;;;24.19;43.63
76126;BME280;65174;48.138;21.002;2023-06-14T12:07:37;99196.38;;;22.88;41.96
76126;BME280;65174;48.138;21.002;2023-06-14T12:10:42;99195.69;;;22.28;43.21
76126;BME280;65174;48.138;21.002;2023-06-14T12:13:48;99202.09;;;22.63;44.23
76126;BME280;65174;48.138;21.002;2023-06-14T12:16:51;99198.44;;;22.49;44.55
76126;BME280;65174;48.138;21.002;2023-06-14T12:19:53;99200.59;;;22.46;46.78
76126;BME280;65174;48.138;21.002;2023-06-14T12:22:56;99193.50;;;22.32;47.27
76126;BME280;65174;48.138;21.002;2023-06-14T12:25:59;99186.97;;;22.28;46.95
76126;BME280;65174;48.138;21.002;2023-06-14T12:29:05;99195.31;;;22.46;46.63
76126;BME280;65174;48.138;21.002;2023-06-14T12:32:27;99190.88;;;22.32;45.99
76126;BME280;65174;48.138;21.002;2023-06-14T12:36:28;99192.91;;;23.17;44.42
76126;BME280;65174;48.138;21.002;2023-06-14T12:40:11;99188.41;;;22.97;44.60
76126;BME280;65174;48.138;21.002;2023-06-14T12:43:13;99185.53;;;23.27;44.19
76126;BME280;65174;48.138;21.002;2023-06-14T12:46:16;99194.44;;;23.41;43.55
76126;BME280;65174;48.138;21.002;2023-06-14T12:53:12;99180.47;;;23.61;44.22
76126;BME280;65174;48.138;21.002;2023-06-14T12:56:14;99182.38;;;23.89;42.68
76126;BME280;65174;48.138;21.002;2023-06-14T12:59:17;99178.75;;;23.33;43.14
76126;BME280;65174;48.138;21.002;2023-06-14T13:02:20;99182.09;;;23.41;43.83
76126;BME280;65174;48.138;21.002;2023-06-14T13:05:27;99171.41;;;23.64;43.39
76126;BME280;65174;48.138;21.002;2023-06-14T13:08:29;99183.81;;;23.91;42.73
76126;BME280;65174;48.138;21.002;2023-06-14T13:11:31;99181.81;;;23.93;43.56
76126;BME280;65174;48.138;21.002;2023-06-14T13:14:33;99175.59;;;23.80;42.03
76126;BME280;65174;48.138;21.002;2023-06-14T13:17:35;99177.00;;;23.25;41.57
76126;BME280;65174;48.138;21.002;2023-06-14T13:20:40;99179.16;;;23.93;42.14
76126;BME280;65174;48.138;21.002;2023-06-14T13:23:42;99173.81;;;24.29;42.25
76126;BME280;65174;48.138;21.002;2023-06-14T13:26:44;99176.56;;;24.42;41.93
76126;BME280;65174;48.138;21.002;2023-06-14T13:29:46;99171.81;;;23.89;42.66
76126;BME280;65174;48.138;21.002;2023-06-14T13:32:48;99175.41;;;24.23;40.98
76126;BME280;65174;48.138;21.002;2023-06-14T13:35:51;99172.31;;;24.20;39.69
76126;BME280;65174;48.138;21.002;2023-06-14T13:38:54;99170.66;;;24.12;41.56
76126;BME280;65174;48.138;21.002;2023-06-14T13:41:56;99178.88;;;23.10;43.44
76126;BME280;65174;48.138;21.002;2023-06-14T13:44:58;99180.41;;;22.75;42.63
76126;BME280;65174;48.138;21.002;2023-06-14T13:48:01;99171.44;;;22.99;43.41
76126;BME280;65174;48.138;21.002;2023-06-14T13:51:05;99179.13;;;23.15;43.74
76126;BME280;65174;48.138;21.002;2023-06-14T13:54:13;99171.59;;;23.12;45.40
76126;BME280;65174;48.138;21.002;2023-06-14T13:57:36;99173.63;;;22.81;44.52
76126;BME280;65174;48.138;21.002;2023-06-14T14:00:38;99177.06;;;22.81;42.53
76126;BME280;65174;48.138;21.002;2023-06-14T14:03:42;99168.28;;;22.74;43.21
76126;BME280;65174;48.138;21.002;2023-06-14T14:06:44;99172.81;;;22.95;41.73
76126;BME280;65174;48.138;21.002;2023-06-14T14:09:50;99166.00;;;22.86;42.59
76126;BME280;65174;48.138;21.002;2023-06-14T14:12:52;99170.47;;;22.34;43.96
76126;BME280;65174;48.138;21.002;2023-06-14T14:15:54;99175.59;;;22.64;44.14
76126;BME280;65174;48.138;21.002;2023-06-14T14:18:56;99174.00;;;22.78;44.46
76126;BME280;65174;48.138;21.002;2023-06-14T14:21:58;99170.28;;;22.72;44.52
76126;BME280;65174;48.138;21.002;2023-06-14T14:25:00;99172.06;;;23.01;44.37
76126;BME280;65174;48.138;21.002;2023-06-14T14:28:02;99171.59;;;23.12;43.31
76126;BME280;65174;48.138;21.002;2023-06-14T14:31:04;99167.91;;;22.92;43.76
76126;BME280;65174;48.138;21.002;2023-06-14T14:34:06;99165.38;;;22.84;45.02
76126;BME280;65174;48.138;21.002;2023-06-14T14:37:08;99164.59;;;22.46;44.89
76126;BME280;65174;48.138;21.002;2023-06-14T14:40:11;99166.44;;;22.60;44.79
76126;BME280;65174;48.138;21.002;2023-06-14T14:43:14;99173.25;;;22.84;46.43
76126;BME280;65174;48.138;21.002;2023-06-14T14:46:16;99170.53;;;22.92;45.58
76126;BME280;65174;48.138;21.002;2023-06-14T14:49:18;99171.06;;;23.02;44.27
76126;BME280;65174;48.138;21.002;2023-06-14T14:52:20;99165.63;;;23.04;44.30
76126;BME280;65174;48.138;21.002;2023-06-14T14:55:45;99157.84;;;22.96;43.45
76126;BME280;65174;48.138;21.002;2023-06-14T14:59:27;99161.63;;;23.08;44.77
76126;BME280;65174;48.138;21.002;2023-06-14T15:02:29;99156.81;;;22.97;44.81
76126;BME280;65174;48.138;21.002;2023-06-14T15:05:31;99155.59;;;22.63;44.92
76126;BME280;65174;48.138;21.002;2023-06-14T15:08:35;99152.13;;;22.77;45.53
76126;BME280;65174;48.138;21.002;2023-06-14T15:11:37;99151.88;;;22.87;43.98
76126;BME280;65174;48.138;21.002;2023-06-14T15:14:39;99155.94;;;22.60;44.01
76126;BME280;65174;48.138;21.002;2023-06-14T15:17:41;99152.75;;;22.79;43.72
76126;BME280;65174;48.138;21.002;2023-06-14T15:20:43;99146.19;;;22.46;43.86
76126;BME280;65174;48.138;21.002;2023-06-14T15:23:45;99145.28;;;22.54;44.36
76126;BME280;65174;48.138;21.002;2023-06-14T15:26:47;99140.94;;;22.46;45.45
76126;BME280;65174;48.138;21.002;2023-06-14T15:29:49;99141.78;;;22.47;45.94
76126;BME280;65174;48.138;21.002;2023-06-14T15:32:52;99133.69;;;22.48;46.80
76126;BME280;65174;48.138;21.002;2023-06-14T15:35:54;99131.72;;;22.65;47.50
76126;BME280;65174;48.138;21.002;2023-06-14T15:38:57;99133.28;;;22.74;46.82
76126;BME280;65174;48.138;21.002;2023-06-14T15:41:59;99142.31;;;22.57;47.08
76126;BME280;65174;48.138;21.002;2023-06-14T15:45:01;99129.25;;;22.49;45.01
76126;BME280;65174;48.138;21.002;2023-06-14T15:48:03;99124.84;;;22.64;45.42
76126;BME280;65174;48.138;21.002;2023-06-14T15:51:06;99138.50;;;22.45;46.09
76126;BME280;65174;48.138;21.002;2023-06-14T15:54:08;99134.59;;;22.41;45.44
76126;BME280;65174;48.138;21.002;2023-06-14T15:57:09;99137.88;;;22.57;46.06
76126;BME280;65174;48.138;21.002;2023-06-14T16:00:13;99130.97;;;22.85;44.37
76126;BME280;65174;48.138;21.002;2023-06-14T16:03:15;99135.59;;;22.83;43.55
76126;BME280;65174;48.138;21.002;2023-06-14T16:06:18;99134.59;;;22.99;43.88
76126;BME280;65174;48.138;21.002;2023-06-14T16:09:21;99139.03;;;22.99;44.25
76126;BME280;65174;48.138;21.002;2023-06-14T16:12:24;99134.84;;;23.33;43.54
76126;BME280;65174;48.138;21.002;2023-06-14T16:15:39;99135.94;;;23.10;44.11
76126;BME280;65174;48.138;21.002;2023-06-14T16:18:41;99130.69;;;23.10;43.65
76126;BME280;65174;48.138;21.002;2023-06-14T16:21:43;99142.50;;;22.84;43.58
76126;BME280;65174;48.138;21.002;2023-06-14T16:24:45;99136.78;;;22.66;44.12
76126;BME280;65174;48.138;21.002;2023-06-14T16:27:47;99140.53;;;22.86;44.58
76126;BME280;65174;48.138;21.002;2023-06-14T16:30:48;99140.97;;;22.75;46.32
76126;BME280;65174;48.138;21.002;2023-06-14T16:33:51;99145.56;;;22.44;45.42
76126;BME280;65174;48.138;21.002;2023-06-14T16:36:56;99145.13;;;22.41;46.87
76126;BME280;65174;48.138;21.002;2023-06-14T16:39:58;99150.63;;;22.31;47.38